createdAt,value
2022-12-08T00:02:02.584Z,91.80
2022-12-08T00:04:51.121Z,91.32
2022-12-08T00:07:38.222Z,91.60
2022-12-08T00:10:39.939Z,91.58
2022-12-08T00:12:56.082Z,91.29
2022-12-08T00:15:24.319Z,91.35
2022-12-08T00:17:52.252Z,91.43
2022-12-08T00:20:21.022Z,91.59
2022-12-08T00:22:50.391Z,92.09
2022-12-08T00:25:19.018Z,91.71
2022-12-08T00:27:47.099Z,91.65
2022-12-08T00:30:15.205Z,90.98
2022-12-08T00:32:46.341Z,91.16
2022-12-08T00:35:14.506Z,90.95
2022-12-08T00:37:42.573Z,90.93
2022-12-08T00:40:12.617Z,91.13
2022-12-08T00:42:40.938Z,90.97
2022-12-08T00:45:09.651Z,90.77
2022-12-08T00:47:37.774Z,91.19
2022-12-08T00:50:07.364Z,92.36
2022-12-08T00:52:35.694Z,92.04
2022-12-08T00:55:03.963Z,91.37
2022-12-08T00:57:34.464Z,91.36
2022-12-08T01:00:02.772Z,91.25
2022-12-08T01:02:32.531Z,91.20
2022-12-08T01:05:00.667Z,91.96
2022-12-08T01:07:29.542Z,91.70
2022-12-08T01:09:58.086Z,91.83
2022-12-08T01:12:26.573Z,91.74
2022-12-08T01:15:00.636Z,91.61
2022-12-08T01:17:30.904Z,91.61
2022-12-08T01:19:59.293Z,91.10
2022-12-08T01:22:27.302Z,90.85
2022-12-08T01:24:55.547Z,91.70
2022-12-08T01:27:23.541Z,91.39
2022-12-08T01:29:52.160Z,91.61
2022-12-08T01:32:21.648Z,91.51
2022-12-08T01:34:49.666Z,91.47
2022-12-08T01:37:17.778Z,91.67
2022-12-08T01:39:46.186Z,91.67
2022-12-08T01:42:22.279Z,92.27
2022-12-08T01:45:00.245Z,91.46
2022-12-08T01:47:36.291Z,91.02
2022-12-08T01:50:07.855Z,91.31
2022-12-08T01:52:40.879Z,90.75
2022-12-08T01:55:14.178Z,91.18
2022-12-08T01:57:47.925Z,90.99
2022-12-08T02:00:19.587Z,90.94
2022-12-08T02:02:54.715Z,91.34
2022-12-08T02:05:25.945Z,91.22
2022-12-08T02:07:55.843Z,91.34
2022-12-08T02:10:25.532Z,90.49
2022-12-08T02:12:55.553Z,89.85
2022-12-08T02:15:34.139Z,90.19
2022-12-08T02:18:18.336Z,90.32
2022-12-08T02:20:55.292Z,90.24
2022-12-08T02:23:33.117Z,90.53
2022-12-08T02:26:37.775Z,90.88
2022-12-08T02:30:04.147Z,91.66
2022-12-08T02:33:11.638Z,92.02
2022-12-08T02:35:50.153Z,91.59
2022-12-08T02:38:27.946Z,91.30
2022-12-08T02:41:07.383Z,91.09
2022-12-08T02:43:43.446Z,90.99
2022-12-08T02:46:17.359Z,91.19
2022-12-08T02:48:45.596Z,91.37
2022-12-08T02:51:14.934Z,90.45
2022-12-08T02:53:43.575Z,90.63
2022-12-08T02:56:25.300Z,91.17
2022-12-08T02:59:15.458Z,90.80
2022-12-08T03:02:02.253Z,91.49
2022-12-08T03:04:40.264Z,90.79
2022-12-08T03:07:15.407Z,90.00
2022-12-08T03:09:49.070Z,90.91
2022-12-08T03:12:22.027Z,90.75
2022-12-08T03:14:54.747Z,91.79
2022-12-08T03:17:29.692Z,91.23
2022-12-08T03:20:06.381Z,92.04
2022-12-08T03:22:36.923Z,92.17
2022-12-08T03:25:05.420Z,90.53
2022-12-08T03:27:35.020Z,91.76
2022-12-08T03:30:04.239Z,90.26
2022-12-08T03:32:39.087Z,91.03
2022-12-08T03:35:12.477Z,91.38
2022-12-08T03:37:43.794Z,91.24
2022-12-08T03:40:15.414Z,91.81
2022-12-08T03:42:43.466Z,92.79
2022-12-08T03:45:12.698Z,92.38
2022-12-08T03:47:40.596Z,91.32
2022-12-08T03:50:09.718Z,91.57
2022-12-08T03:52:37.629Z,92.28
2022-12-08T03:55:08.520Z,91.84
2022-12-08T03:57:36.598Z,91.23
2022-12-08T04:00:07.119Z,92.07
2022-12-08T04:02:35.345Z,91.95
2022-12-08T04:05:03.551Z,91.72
2022-12-08T04:07:31.516Z,91.65
2022-12-08T04:09:59.376Z,92.06
2022-12-08T04:12:29.229Z,92.86
2022-12-08T04:14:57.171Z,92.25
2022-12-08T04:17:25.415Z,91.95
2022-12-08T04:19:53.371Z,91.53
2022-12-08T04:22:21.471Z,92.12
2022-12-08T04:24:49.503Z,92.51
2022-12-08T04:27:17.816Z,91.95
2022-12-08T04:29:47.283Z,92.35
2022-12-08T04:32:15.543Z,92.41
2022-12-08T04:34:43.482Z,92.31
2022-12-08T04:37:11.527Z,92.25
2022-12-08T04:39:39.406Z,92.24
2022-12-08T04:42:07.708Z,93.02
2022-12-08T04:44:35.622Z,93.43
2022-12-08T04:47:05.540Z,93.27
2022-12-08T04:49:33.567Z,92.97
2022-12-08T04:52:01.898Z,93.09
2022-12-08T04:54:30.115Z,92.47
2022-12-08T04:56:58.422Z,92.36
2022-12-08T04:59:26.388Z,92.40
2022-12-08T05:01:55.074Z,92.94
2022-12-08T05:04:24.510Z,92.61
2022-12-08T05:06:54.010Z,92.03
2022-12-08T05:09:22.363Z,91.30
2022-12-08T05:11:50.459Z,91.74
2022-12-08T05:14:21.062Z,91.90
2022-12-08T05:16:51.994Z,91.59
2022-12-08T05:19:20.298Z,93.04
2022-12-08T05:21:49.679Z,92.78
2022-12-08T05:24:17.795Z,92.75
2022-12-08T05:26:45.745Z,92.74
2022-12-08T05:29:13.953Z,92.40
2022-12-08T05:31:41.998Z,92.28
2022-12-08T05:34:10.061Z,93.02
2022-12-08T05:36:38.060Z,93.54
2022-12-08T05:39:07.471Z,92.58
2022-12-08T05:41:35.434Z,92.75
2022-12-08T05:44:03.663Z,93.08
2022-12-08T05:46:31.640Z,92.59
2022-12-08T05:49:00.724Z,91.75
2022-12-08T05:51:29.369Z,92.58
2022-12-08T05:53:58.108Z,92.35
2022-12-08T05:56:27.487Z,92.61
2022-12-08T05:58:55.839Z,91.90
2022-12-08T06:01:26.089Z,91.58
2022-12-08T06:03:54.215Z,92.04
2022-12-08T06:06:23.006Z,90.93
2022-12-08T06:08:51.549Z,90.84
2022-12-08T06:11:21.078Z,91.17
2022-12-08T06:13:50.935Z,91.05
2022-12-08T06:16:19.615Z,90.69
2022-12-08T06:18:48.299Z,90.96
2022-12-08T06:21:17.394Z,91.17
2022-12-08T06:23:45.827Z,91.09
2022-12-08T06:26:16.339Z,92.31
2022-12-08T06:28:44.998Z,91.58
2022-12-08T06:31:17.188Z,92.30
2022-12-08T06:33:45.749Z,92.56
2022-12-08T06:36:15.042Z,92.54
2022-12-08T06:38:43.862Z,92.73
2022-12-08T06:41:13.293Z,92.39
2022-12-08T06:43:42.082Z,92.70
2022-12-08T06:46:12.679Z,92.93
2022-12-08T06:48:42.347Z,92.47
2022-12-08T06:51:12.441Z,92.64
2022-12-08T06:53:41.350Z,91.98
2022-12-08T06:56:10.051Z,92.70
2022-12-08T06:58:38.286Z,92.68
2022-12-08T07:01:07.909Z,92.59
2022-12-08T07:03:36.300Z,92.00
2022-12-08T07:06:06.346Z,91.99
2022-12-08T07:08:36.013Z,92.27
2022-12-08T07:11:09.840Z,90.93
2022-12-08T07:13:37.985Z,91.72
2022-12-08T07:16:07.807Z,90.99
2022-12-08T07:18:36.832Z,91.68
2022-12-08T07:21:08.075Z,91.59
2022-12-08T07:23:36.317Z,92.38
2022-12-08T07:26:05.960Z,92.38
2022-12-08T07:28:34.282Z,91.18
2022-12-08T07:31:02.555Z,91.97
2022-12-08T07:33:31.537Z,91.20
2022-12-08T07:36:01.896Z,91.97
2022-12-08T07:38:32.018Z,91.60
2022-12-08T07:40:59.993Z,91.71
2022-12-08T07:43:28.152Z,91.70
2022-12-08T07:45:56.542Z,92.13
2022-12-08T07:48:24.592Z,92.02
2022-12-08T07:50:52.468Z,91.81
2022-12-08T07:53:20.866Z,91.52
2022-12-08T07:55:51.586Z,91.24
2022-12-08T07:58:19.976Z,91.46
2022-12-08T08:00:47.976Z,91.95
2022-12-08T08:03:15.989Z,91.19
2022-12-08T08:05:44.673Z,90.96
2022-12-08T08:08:12.560Z,91.67
2022-12-08T08:10:40.470Z,91.27
2022-12-08T08:13:10.522Z,91.29
2022-12-08T08:15:38.410Z,92.17
2022-12-08T08:18:06.413Z,92.42
2022-12-08T08:20:34.747Z,92.07
2022-12-08T08:23:02.668Z,92.13
2022-12-08T08:25:30.658Z,92.21
2022-12-08T08:27:59.265Z,91.99
2022-12-08T08:30:28.486Z,92.05
2022-12-08T08:32:56.384Z,91.25
2022-12-08T08:35:26.560Z,92.65
2022-12-08T08:37:54.989Z,91.44
2022-12-08T08:40:22.858Z,91.70
2022-12-08T08:42:51.131Z,91.54
2022-12-08T08:45:18.972Z,92.58
2022-12-08T08:47:48.393Z,91.91
2022-12-08T08:50:16.249Z,92.79
2022-12-08T08:52:44.094Z,91.70
2022-12-08T08:55:12.308Z,92.28
2022-12-08T08:57:40.814Z,91.98
2022-12-08T09:00:10.244Z,92.75
2022-12-08T09:02:38.732Z,93.08
2022-12-08T09:05:09.260Z,92.34
2022-12-08T09:07:37.430Z,92.33
2022-12-08T09:10:06.919Z,92.49
2022-12-08T09:12:35.160Z,92.60
2022-12-08T09:15:02.987Z,91.74
2022-12-08T09:17:30.819Z,92.16
2022-12-08T09:19:59.116Z,91.62
2022-12-08T09:22:28.574Z,91.68
2022-12-08T09:24:56.634Z,91.92
2022-12-08T09:27:24.906Z,91.08
2022-12-08T09:29:53.051Z,90.72
2022-12-08T09:32:20.842Z,91.29
2022-12-08T09:34:52.255Z,90.62
2022-12-08T09:37:20.357Z,90.21
2022-12-08T09:39:50.062Z,90.36
2022-12-08T09:42:30.814Z,89.88
2022-12-08T09:45:06.720Z,89.70
2022-12-08T09:47:38.461Z,88.68
2022-12-08T09:50:13.082Z,88.88
2022-12-08T09:52:44.597Z,88.36
2022-12-08T09:55:22.440Z,88.32
2022-12-08T09:57:56.602Z,87.77
2022-12-08T10:00:24.957Z,87.16
2022-12-08T10:02:53.025Z,87.11
2022-12-08T10:05:21.875Z,86.74
2022-12-08T10:08:00.124Z,86.51
2022-12-08T10:10:38.047Z,85.63
2022-12-08T10:13:13.508Z,85.29
2022-12-08T10:15:47.364Z,84.53
2022-12-08T10:18:18.730Z,83.80
2022-12-08T10:20:49.031Z,82.79
2022-12-08T10:23:29.273Z,82.62
2022-12-08T10:26:02.974Z,82.02
2022-12-08T10:28:32.312Z,82.15
2022-12-08T10:31:00.472Z,81.59
2022-12-08T10:33:29.810Z,80.74
2022-12-08T10:36:01.052Z,80.41
2022-12-08T10:38:32.589Z,80.07
2022-12-08T10:41:08.965Z,79.86
2022-12-08T10:43:39.482Z,79.59
2022-12-08T10:46:13.601Z,77.72
2022-12-08T10:48:50.689Z,76.83
2022-12-08T10:51:30.849Z,76.57
2022-12-08T10:53:59.400Z,76.84
2022-12-08T10:56:30.657Z,75.79
2022-12-08T10:59:15.242Z,75.74
2022-12-08T11:01:48.690Z,75.30
2022-12-08T11:04:19.624Z,75.19
2022-12-08T11:06:49.622Z,74.27
2022-12-08T11:09:37.772Z,73.71
2022-12-08T11:12:14.940Z,73.67
2022-12-08T11:14:51.679Z,73.16
2022-12-08T11:17:27.349Z,72.63
2022-12-08T11:20:00.746Z,72.81
2022-12-08T11:22:32.751Z,73.79
2022-12-08T11:25:03.598Z,73.44
2022-12-08T11:27:35.622Z,73.56
2022-12-08T11:30:09.681Z,73.95
2022-12-08T11:32:44.785Z,74.73
2022-12-08T11:35:22.253Z,73.50
2022-12-08T11:37:50.553Z,73.97
2022-12-08T11:40:23.319Z,73.82
2022-12-08T11:42:58.278Z,73.90
2022-12-08T11:45:31.063Z,74.20
2022-12-08T11:48:07.365Z,73.59
2022-12-08T11:50:43.899Z,73.61
2022-12-08T11:53:20.898Z,73.03
2022-12-08T11:55:53.282Z,73.90
2022-12-08T11:58:28.340Z,74.23
2022-12-08T12:00:56.639Z,74.66
2022-12-08T12:03:30.309Z,74.80
2022-12-08T12:06:38.061Z,73.97
2022-12-08T12:09:14.377Z,74.21
2022-12-08T12:12:11.972Z,74.63
2022-12-08T12:14:57.962Z,74.59
2022-12-08T12:17:42.654Z,74.91
2022-12-08T12:20:18.209Z,75.13
2022-12-08T12:22:49.833Z,75.13
2022-12-08T12:25:20.829Z,74.96
2022-12-08T12:27:51.250Z,74.97
2022-12-08T12:30:29.988Z,75.26
2022-12-08T12:33:00.631Z,74.98
2022-12-08T12:35:34.861Z,75.07
2022-12-08T12:38:31.140Z,75.07
2022-12-08T12:41:04.152Z,74.67
2022-12-08T12:43:37.489Z,74.40
2022-12-08T12:46:54.555Z,75.14
2022-12-08T12:49:53.654Z,75.00
2022-12-08T12:52:44.586Z,75.44
2022-12-08T12:55:26.369Z,74.89
2022-12-08T12:57:56.378Z,74.94
2022-12-08T13:00:26.303Z,74.99
2022-12-08T13:02:58.425Z,75.52
2022-12-08T13:05:28.538Z,75.16
2022-12-08T13:07:59.729Z,75.44
2022-12-08T13:10:31.804Z,75.28
2022-12-08T13:13:06.567Z,75.72
2022-12-08T13:15:40.859Z,75.23
2022-12-08T13:18:21.694Z,75.81
2022-12-08T13:20:53.090Z,75.73
2022-12-08T13:23:31.097Z,75.68
2022-12-08T13:26:20.903Z,75.93
2022-12-08T13:29:23.199Z,75.87
2022-12-08T13:31:53.800Z,76.08
2022-12-08T13:34:31.096Z,75.69
2022-12-08T13:37:05.786Z,76.21
2022-12-08T13:39:42.247Z,76.03
2022-12-08T13:42:19.585Z,76.22
2022-12-08T13:45:19.814Z,75.79
2022-12-08T13:48:05.965Z,76.15
2022-12-08T13:59:10.047Z,76.77
2022-12-08T14:01:45.901Z,76.54
2022-12-08T14:07:13.662Z,76.21
2022-12-08T14:09:42.893Z,76.25
2022-12-08T14:12:19.995Z,76.39
2022-12-08T14:15:05.552Z,76.72
2022-12-08T14:17:34.504Z,76.50
2022-12-08T14:20:06.690Z,76.32
2022-12-08T14:22:38.533Z,76.57
2022-12-08T14:25:08.737Z,76.20
2022-12-08T14:27:40.176Z,76.52
2022-12-08T14:30:16.732Z,75.54
2022-12-08T14:32:48.790Z,75.50
2022-12-08T14:35:23.136Z,75.12
2022-12-08T14:37:56.121Z,75.03
2022-12-08T14:40:32.658Z,75.87
2022-12-08T14:43:16.122Z,76.24
2022-12-08T14:45:55.523Z,76.57
2022-12-08T14:48:26.872Z,76.50
2022-12-08T14:51:03.455Z,76.66
2022-12-08T14:53:40.157Z,76.94
2022-12-08T14:56:12.599Z,77.37
2022-12-08T14:58:40.646Z,77.76
2022-12-08T15:01:10.498Z,77.99
2022-12-08T15:03:38.858Z,78.49
2022-12-08T15:06:10.240Z,78.04
2022-12-08T15:08:55.250Z,77.96
2022-12-08T15:11:33.947Z,77.91
2022-12-08T15:14:05.781Z,77.95
2022-12-08T15:16:43.396Z,78.96
2022-12-08T15:19:20.559Z,79.10
2022-12-08T15:21:48.588Z,78.73
2022-12-08T15:24:18.740Z,79.18
2022-12-08T15:26:49.726Z,79.27
2022-12-08T15:29:22.352Z,78.90
2022-12-08T15:31:50.940Z,78.71
2022-12-08T15:34:19.167Z,78.82
2022-12-08T15:36:49.874Z,78.83
2022-12-08T15:39:29.708Z,78.85
2022-12-08T15:41:58.141Z,79.14
2022-12-08T15:44:26.301Z,79.53
2022-12-08T15:46:55.330Z,80.38
2022-12-08T15:49:25.720Z,80.47
2022-12-08T15:52:01.971Z,80.55
2022-12-08T15:54:40.708Z,80.01
2022-12-08T15:57:22.083Z,80.19
2022-12-08T15:59:59.032Z,80.76
2022-12-08T16:02:34.368Z,80.73
2022-12-08T16:05:41.458Z,80.22
2022-12-08T16:08:17.117Z,79.92
2022-12-08T16:11:34.665Z,80.39
2022-12-08T16:14:23.233Z,79.52
2022-12-08T16:16:43.765Z,79.96
2022-12-08T16:19:15.305Z,79.63
2022-12-08T16:24:31.576Z,80.58
2022-12-08T16:27:58.889Z,80.14
2022-12-08T16:29:49.500Z,80.08
2022-12-08T16:32:18.831Z,80.23
2022-12-08T16:34:47.477Z,79.49
2022-12-08T16:37:17.350Z,79.69
2022-12-08T16:39:46.380Z,78.82
2022-12-08T16:42:34.808Z,79.07
2022-12-08T16:45:05.047Z,78.86
2022-12-08T16:47:33.677Z,78.66
2022-12-08T16:50:01.597Z,78.81
2022-12-08T16:52:30.253Z,78.30
2022-12-08T16:54:58.289Z,78.85
2022-12-08T16:57:27.810Z,78.37
2022-12-08T16:59:56.658Z,78.45
2022-12-08T17:02:24.561Z,78.60
2022-12-08T17:04:52.521Z,78.85
2022-12-08T17:07:21.128Z,79.29
2022-12-08T17:09:49.060Z,78.87
2022-12-08T17:12:17.320Z,79.38
2022-12-08T17:14:47.034Z,78.16
2022-12-08T17:17:15.995Z,78.01
2022-12-08T17:19:43.857Z,77.75
2022-12-08T17:22:11.945Z,77.36
2022-12-08T17:24:40.327Z,78.16
2022-12-08T17:27:08.540Z,76.85
2022-12-08T17:29:37.168Z,77.40
2022-12-08T17:32:07.773Z,77.32
2022-12-08T17:34:35.896Z,77.73
2022-12-08T17:37:04.210Z,77.24
2022-12-08T17:39:32.100Z,77.61
2022-12-08T17:42:00.589Z,77.80
2022-12-08T17:44:29.208Z,78.23
2022-12-08T17:46:57.183Z,77.26
2022-12-08T17:49:30.093Z,78.08
2022-12-08T17:52:00.309Z,77.54
2022-12-08T17:54:28.570Z,77.68
2022-12-08T17:56:59.033Z,77.89
2022-12-08T17:59:28.274Z,78.18
2022-12-08T18:01:57.284Z,78.06
2022-12-08T18:04:27.902Z,78.29
2022-12-08T18:06:58.390Z,78.61
2022-12-08T18:09:26.389Z,78.74
2022-12-08T18:11:54.921Z,78.75
2022-12-08T18:14:22.938Z,78.79
2022-12-08T18:16:51.047Z,78.42
2022-12-08T18:19:19.728Z,77.93
2022-12-08T18:21:49.197Z,78.04
2022-12-08T18:24:21.239Z,77.63
2022-12-08T18:26:50.690Z,78.38
2022-12-08T18:29:18.709Z,78.02
2022-12-08T18:31:47.058Z,77.51
2022-12-08T18:34:16.336Z,77.58
2022-12-08T18:36:44.188Z,77.77
2022-12-08T18:39:23.539Z,77.54
2022-12-08T18:41:51.564Z,78.91
2022-12-08T18:44:20.005Z,79.15
2022-12-08T18:46:48.618Z,78.82
2022-12-08T18:49:19.235Z,78.67
2022-12-08T18:51:47.601Z,79.00
2022-12-08T18:54:16.011Z,78.53
2022-12-08T18:56:45.383Z,78.50
2022-12-08T18:59:13.811Z,78.95
2022-12-08T19:01:42.740Z,79.44
2022-12-08T19:04:28.061Z,79.27
2022-12-08T19:06:57.130Z,80.06
2022-12-08T19:09:29.038Z,79.92
2022-12-08T19:11:59.728Z,79.85
2022-12-08T19:14:30.774Z,80.14
2022-12-08T19:16:59.868Z,80.11
2022-12-08T19:19:28.484Z,79.29
2022-12-08T19:21:58.092Z,79.40
2022-12-08T19:24:26.925Z,79.94
2022-12-08T19:26:55.005Z,80.39
2022-12-08T19:29:24.519Z,79.96
2022-12-08T19:31:54.149Z,79.88
2022-12-08T19:34:23.321Z,79.51
2022-12-08T19:36:52.988Z,79.52
2022-12-08T19:39:41.436Z,79.47
2022-12-08T19:42:32.700Z,80.22
2022-12-08T19:45:07.675Z,80.66
2022-12-08T19:47:35.957Z,80.98
2022-12-08T19:50:21.642Z,79.90
2022-12-08T19:52:50.013Z,81.00
2022-12-08T19:55:20.888Z,80.33
2022-12-08T19:57:52.604Z,80.44
2022-12-08T20:00:22.364Z,81.10
2022-12-08T20:02:51.302Z,80.14
2022-12-08T20:05:19.769Z,80.56
2022-12-08T20:07:49.336Z,78.61
2022-12-08T20:10:19.371Z,79.07
2022-12-08T20:12:49.548Z,79.31
2022-12-08T20:15:19.398Z,78.93
2022-12-08T20:17:48.786Z,80.08
2022-12-08T20:20:16.722Z,79.70
2022-12-08T20:22:45.427Z,79.02
2022-12-08T20:25:13.591Z,78.82
2022-12-08T20:27:42.583Z,78.90
2022-12-08T20:30:16.759Z,79.77
2022-12-08T20:32:45.746Z,79.93
2022-12-08T20:35:15.898Z,79.82
2022-12-08T20:37:44.039Z,78.81
2022-12-08T20:40:14.208Z,79.91
2022-12-08T20:42:42.168Z,80.90
2022-12-08T20:45:10.708Z,79.91
2022-12-08T20:47:39.539Z,80.31
2022-12-08T20:50:09.782Z,81.34
2022-12-08T20:52:39.920Z,80.39
2022-12-08T20:55:09.088Z,81.47
2022-12-08T20:57:37.741Z,80.46
2022-12-08T21:00:07.566Z,81.42
2022-12-08T21:02:36.035Z,82.74
2022-12-08T21:05:06.427Z,82.34
2022-12-08T21:07:35.415Z,83.13
2022-12-08T21:10:05.841Z,83.03
2022-12-08T21:12:34.030Z,82.75
2022-12-08T21:15:02.423Z,82.49
2022-12-08T21:17:30.596Z,82.55
2022-12-08T21:19:59.365Z,81.85
2022-12-08T21:22:27.481Z,82.59
2022-12-08T21:24:55.497Z,82.86
2022-12-08T21:27:25.463Z,83.21
2022-12-08T21:29:53.512Z,81.62
2022-12-08T21:32:25.633Z,81.42
2022-12-08T21:34:57.012Z,81.56
2022-12-08T21:37:25.238Z,82.50
2022-12-08T21:39:53.469Z,82.61
2022-12-08T21:42:38.997Z,83.04
2022-12-08T21:45:09.955Z,82.15
2022-12-08T21:47:38.147Z,83.60
2022-12-08T21:50:08.287Z,83.16
2022-12-08T21:52:38.852Z,84.28
2022-12-08T21:55:08.398Z,83.82
2022-12-08T21:57:36.786Z,84.74
2022-12-08T22:00:05.946Z,83.93
2022-12-08T22:02:36.173Z,84.07
2022-12-08T22:05:04.359Z,83.53
2022-12-08T22:07:32.342Z,84.27
2022-12-08T22:10:00.785Z,84.81
2022-12-08T22:12:28.863Z,84.49
2022-12-08T22:14:57.149Z,84.15
2022-12-08T22:17:25.938Z,84.91
2022-12-08T22:19:55.716Z,85.13
2022-12-08T22:22:23.748Z,84.25
2022-12-08T22:24:51.664Z,85.07
2022-12-08T22:27:19.645Z,84.40
2022-12-08T22:29:48.005Z,85.39
2022-12-08T22:32:16.032Z,84.89
2022-12-08T22:34:44.136Z,84.41
2022-12-08T22:37:13.972Z,85.16
2022-12-08T22:39:42.297Z,84.87
2022-12-08T22:42:11.222Z,85.34
2022-12-08T22:45:30.036Z,84.18
2022-12-08T22:48:20.599Z,84.74
2022-12-08T22:50:48.854Z,84.68
2022-12-08T22:53:18.206Z,85.31
2022-12-08T22:55:46.673Z,85.07
2022-12-08T22:58:15.018Z,84.77
2022-12-08T23:00:43.377Z,85.23
2022-12-08T23:03:11.686Z,84.93
2022-12-08T23:05:41.660Z,83.99
2022-12-08T23:08:10.722Z,84.10
2022-12-08T23:10:41.444Z,84.16
2022-12-08T23:13:10.670Z,84.69
2022-12-08T23:15:39.236Z,84.83
2022-12-08T23:18:08.506Z,84.64
2022-12-08T23:20:37.017Z,84.95
2022-12-08T23:23:05.454Z,84.57
2022-12-08T23:25:33.576Z,85.37
2022-12-08T23:28:03.390Z,85.44
2022-12-08T23:30:31.615Z,85.76
2022-12-08T23:32:59.967Z,85.72
2022-12-08T23:35:28.393Z,86.43
2022-12-08T23:37:56.452Z,85.62
2022-12-08T23:40:24.586Z,85.65
2022-12-08T23:42:52.647Z,85.41
2022-12-08T23:45:22.094Z,85.80
2022-12-08T23:47:50.222Z,86.69
2022-12-08T23:50:18.716Z,85.94
2022-12-08T23:52:46.825Z,86.08
2022-12-08T23:55:17.831Z,85.78
2022-12-08T23:57:46.349Z,85.90
